Time;durP1;ratioP1;P1;durP2;ratioP2;P2;SDS_P1;SDS_P2;PMS_P1;PMS_P2;Temp;Humidity;BMP_temperature;BMP_pressure;BME280_temperature;BME280_humidity;BME280_pressure;Samples;Min_cycle;Max_cycle;Signal;HPM_P1;HPM_P2
2023/01/15 00:01:26;;;;;;;1.70;1.10;;;7.90;99.90;;;;;;5036450;28;20025;-86
2023/01/15 00:03:53;;;;;;;4.20;1.40;;;7.90;99.90;;;;;;5016507;28;20033;-85
2023/01/15 00:06:21;;;;;;;2.07;1.20;;;7.80;99.90;;;;;;5025729;28;20410;-85
2023/01/15 00:08:47;;;;;;;1.33;1.03;;;7.80;99.90;;;;;;5027695;28;20032;-83
2023/01/15 00:11:13;;;;;;;1.30;1.10;;;7.90;99.90;;;;;;5029527;28;20022;-83
2023/01/15 00:13:39;;;;;;;2.67;1.30;;;7.90;99.90;;;;;;5027980;28;20033;-83
2023/01/15 00:16:11;;;;;;;2.30;1.20;;;7.90;99.90;;;;;;5029657;28;20029;-83
2023/01/15 00:18:37;;;;;;;2.73;1.10;;;8.00;99.90;;;;;;5023300;28;20115;-83
2023/01/15 00:21:06;;;;;;;2.70;1.03;;;8.00;99.90;;;;;;5030102;28;20030;-82
2023/01/15 00:29:02;;;;;;;1.50;1.10;;;8.00;99.90;;;;;;5026189;28;19916;-83
2023/01/15 00:31:28;;;;;;;1.70;1.00;;;8.10;99.90;;;;;;5028185;28;20025;-83
2023/01/15 00:33:54;;;;;;;2.40;1.13;;;8.10;99.90;;;;;;5027160;28;20025;-83
2023/01/15 00:36:19;;;;;;;3.40;1.20;;;8.00;99.90;;;;;;5031020;28;20025;-82
2023/01/15 00:38:45;;;;;;;2.40;1.10;;;8.00;99.90;;;;;;5029409;28;20013;-83
2023/01/15 00:41:11;;;;;;;2.47;1.30;;;8.00;99.90;;;;;;5028315;28;20038;-83
2023/01/15 00:43:36;;;;;;;2.27;1.40;;;8.00;99.90;;;;;;5032264;28;20140;-83
2023/01/15 00:46:04;;;;;;;3.23;1.10;;;7.90;99.90;;;;;;5028081;28;20113;-83
2023/01/15 00:48:29;;;;;;;2.90;1.50;;;7.90;99.90;;;;;;5032405;28;20017;-83
2023/01/15 00:50:55;;;;;;;4.27;1.30;;;7.90;99.90;;;;;;5028842;28;20163;-83
2023/01/15 00:53:21;;;;;;;1.40;1.10;;;7.80;99.90;;;;;;5028353;28;20061;-83
2023/01/15 00:55:46;;;;;;;2.93;1.20;;;7.80;99.90;;;;;;5028498;28;20025;-83
2023/01/15 00:58:12;;;;;;;1.80;1.00;;;7.70;99.90;;;;;;5027524;28;20073;-83
2023/01/15 01:00:37;;;;;;;1.40;1.00;;;7.70;99.90;;;;;;5031539;28;20048;-83
2023/01/15 01:03:03;;;;;;;3.37;1.00;;;7.60;99.90;;;;;;5029592;28;20029;-89
2023/01/15 01:05:30;;;;;;;2.27;1.00;;;7.60;99.90;;;;;;5009944;28;20480;-88
2023/01/15 01:07:55;;;;;;;1.63;0.93;;;7.50;99.90;;;;;;5024085;28;20101;-91
2023/01/15 01:10:21;;;;;;;1.93;1.13;;;7.50;99.90;;;;;;5033064;28;20109;-91
2023/01/15 01:12:50;;;;;;;2.60;1.07;;;7.50;99.90;;;;;;5030831;28;20076;-90
2023/01/15 01:15:16;;;;;;;2.63;1.20;;;7.50;99.90;;;;;;5029795;28;20029;-90
2023/01/15 01:17:42;;;;;;;3.83;1.17;;;7.40;99.90;;;;;;5032329;28;20020;-91
2023/01/15 01:20:09;;;;;;;1.70;0.97;;;7.40;99.90;;;;;;5026576;28;20021;-90
2023/01/15 01:22:35;;;;;;;1.50;1.00;;;7.40;99.90;;;;;;5009858;28;20021;-90
2023/01/15 01:25:00;;;;;;;1.60;1.20;;;7.40;99.90;;;;;;5022841;28;20026;-92
2023/01/15 01:27:26;;;;;;;1.80;1.00;;;7.30;99.90;;;;;;5022665;28;20029;-91
2023/01/15 01:29:51;;;;;;;1.87;1.13;;;7.30;99.90;;;;;;5031076;28;20026;-91
2023/01/15 01:32:17;;;;;;;2.10;1.20;;;7.30;99.90;;;;;;5012181;28;20067;-92
2023/01/15 01:34:42;;;;;;;1.63;1.20;;;7.30;99.90;;;;;;5018925;28;20058;-91
2023/01/15 01:37:08;;;;;;;1.87;0.97;;;7.30;99.90;;;;;;5025227;28;20367;-91
2023/01/15 01:39:33;;;;;;;2.00;1.00;;;7.20;99.90;;;;;;5031029;28;20427;-91
2023/01/15 01:41:59;;;;;;;1.80;1.13;;;7.20;99.90;;;;;;5028199;28;20040;-91
2023/01/15 01:44:33;;;;;;;2.00;1.27;;;7.20;99.90;;;;;;5029995;28;20026;-90
2023/01/15 01:47:07;;;;;;;2.10;1.27;;;7.10;99.90;;;;;;5029612;28;20040;-91
2023/01/15 01:49:34;;;;;;;1.73;1.03;;;7.10;99.90;;;;;;5004952;28;20033;-92
2023/01/15 01:52:09;;;;;;;3.53;1.10;;;7.00;99.90;;;;;;5031867;28;20386;-92
2023/01/15 01:54:37;;;;;;;2.30;1.10;;;7.00;99.90;;;;;;5032467;28;20021;-92
2023/01/15 01:57:05;;;;;;;2.90;1.10;;;7.00;99.90;;;;;;5023923;28;20026;-91
2023/01/15 01:59:31;;;;;;;1.47;1.03;;;7.00;99.90;;;;;;5017398;28;20018;-91
2023/01/15 02:01:58;;;;;;;2.00;1.03;;;6.90;99.90;;;;;;5032456;28;20030;-91
2023/01/15 02:04:27;;;;;;;2.53;1.00;;;6.90;99.90;;;;;;5032615;28;20057;-89
2023/01/15 02:06:53;;;;;;;1.53;1.10;;;6.90;99.90;;;;;;5032707;28;20033;-90
2023/01/15 02:09:18;;;;;;;1.53;1.10;;;6.90;99.90;;;;;;5032815;28;20032;-90
2023/01/15 02:11:44;;;;;;;2.37;1.00;;;6.80;99.90;;;;;;5032129;28;20033;-89
2023/01/15 02:14:16;;;;;;;2.53;1.20;;;6.80;99.90;;;;;;5025319;28;20025;-89
2023/01/15 02:16:47;;;;;;;1.83;1.10;;;6.80;99.90;;;;;;5011243;28;20029;-89
2023/01/15 02:19:12;;;;;;;1.40;1.00;;;6.80;99.90;;;;;;5033958;28;20017;-89
2023/01/15 02:22:17;;;;;;;1.00;0.90;;;6.80;99.90;;;;;;5032816;28;20348;-90
2023/01/15 02:25:07;;;;;;;1.53;1.10;;;6.80;99.90;;;;;;5011975;28;20109;-89
2023/01/15 02:27:33;;;;;;;2.33;1.10;;;6.80;99.90;;;;;;5009200;28;20470;-89
2023/01/15 02:30:21;;;;;;;1.87;1.00;;;6.80;99.90;;;;;;5027739;28;20041;-90
2023/01/15 02:32:58;;;;;;;1.80;1.00;;;6.80;99.90;;;;;;5041026;28;20388;-89
2023/01/15 02:35:32;;;;;;;1.43;1.07;;;6.80;99.90;;;;;;5016180;28;20029;-83
2023/01/15 02:38:01;;;;;;;1.33;0.98;;;6.80;99.90;;;;;;5055579;28;20025;-83
2023/01/15 02:40:28;;;;;;;0.87;0.80;;;6.80;99.90;;;;;;5056100;28;20045;-83
2023/01/15 02:42:55;;;;;;;1.23;0.90;;;6.90;99.90;;;;;;5038130;28;20442;-83
2023/01/15 02:45:26;;;;;;;1.43;0.97;;;6.90;99.90;;;;;;5033961;28;20040;-80
2023/01/15 02:48:01;;;;;;;3.20;1.10;;;6.90;99.90;;;;;;5011331;28;20036;-79
2023/01/15 02:50:30;;;;;;;;;;;6.90;99.90;;;;;;5031833;28;20080;-80
2023/01/15 02:53:04;;;;;;;2.47;1.00;;;6.90;99.90;;;;;;5030105;28;20504;-79
2023/01/15 02:55:33;;;;;;;1.00;0.80;;;6.90;99.90;;;;;;5010768;28;20040;-79
2023/01/15 02:58:03;;;;;;;1.87;0.90;;;7.00;99.90;;;;;;5029833;28;20025;-79
2023/01/15 03:00:32;;;;;;;1.43;0.90;;;7.00;99.90;;;;;;5029177;28;20053;-79
2023/01/15 03:03:06;;;;;;;1.50;0.90;;;7.00;99.90;;;;;;5030919;28;20372;-79
2023/01/15 03:06:04;;;;;;;1.73;1.20;;;7.10;99.90;;;;;;5028430;28;20063;-79
2023/01/15 03:08:30;;;;;;;1.67;1.10;;;7.10;99.90;;;;;;5029930;28;20021;-79
2023/01/15 03:11:14;;;;;;;1.03;0.90;;;7.10;99.90;;;;;;5028751;28;20480;-80
2023/01/15 03:13:48;;;;;;;2.10;0.87;;;7.20;99.90;;;;;;5029056;28;20049;-80
2023/01/15 03:16:34;;;;;;;1.43;0.90;;;7.20;99.90;;;;;;5029255;28;20037;-80
2023/01/15 03:19:12;;;;;;;1.13;0.97;;;7.20;99.90;;;;;;5030306;28;20104;-81
2023/01/15 03:21:37;;;;;;;1.40;0.93;;;7.20;99.90;;;;;;5012865;28;20142;-81
2023/01/15 03:24:05;;;;;;;1.43;0.90;;;7.20;99.90;;;;;;5011021;28;20025;-80
2023/01/15 03:26:31;;;;;;;1.03;0.80;;;7.20;99.90;;;;;;5030515;28;20526;-81
2023/01/15 03:28:57;;;;;;;1.70;0.97;;;7.20;99.90;;;;;;5030456;28;20058;-81
2023/01/15 03:31:22;;;;;;;1.40;0.80;;;7.20;99.90;;;;;;5030479;28;20029;-81
2023/01/15 03:33:48;;;;;;;1.33;0.70;;;7.10;99.90;;;;;;5029657;28;20093;-82
2023/01/15 03:36:14;;;;;;;0.83;0.80;;;7.10;99.90;;;;;;5028467;28;20033;-81
2023/01/15 03:38:40;;;;;;;1.23;0.80;;;7.10;99.90;;;;;;5030062;28;20026;-81
2023/01/15 03:41:38;;;;;;;5.00;1.13;;;7.10;99.90;;;;;;5029441;28;20494;-81
2023/01/15 03:44:12;;;;;;;3.93;1.00;;;7.10;99.90;;;;;;5023312;28;20049;-81
2023/01/15 03:47:08;;;;;;;1.83;0.98;;;7.10;99.90;;;;;;5026867;28;20466;-81
2023/01/15 03:49:37;;;;;;;1.83;0.93;;;7.10;99.90;;;;;;5028751;28;20068;-81
2023/01/15 03:52:20;;;;;;;1.00;0.90;;;7.10;99.90;;;;;;5028915;28;20018;-81
2023/01/15 03:55:04;;;;;;;1.27;0.80;;;7.20;99.90;;;;;;5008461;28;20052;-81
2023/01/15 03:57:54;;;;;;;1.13;0.83;;;7.20;99.90;;;;;;5011785;28;20060;-81
2023/01/15 04:00:41;;;;;;;2.13;1.00;;;7.20;99.90;;;;;;5027306;28;20099;-81
2023/01/15 04:03:09;;;;;;;0.97;0.80;;;7.30;99.90;;;;;;5031062;28;20025;-80
2023/01/15 04:05:36;;;;;;;1.63;0.90;;;7.30;99.90;;;;;;5027698;28;20029;-81
2023/01/15 04:08:02;;;;;;;1.73;1.00;;;7.30;99.90;;;;;;5030757;28;20029;-80
2023/01/15 04:10:28;;;;;;;2.90;1.60;;;7.30;99.90;;;;;;5028916;28;20159;-81
2023/01/15 04:12:53;;;;;;;1.63;1.10;;;7.30;99.90;;;;;;5026440;28;20542;-81
2023/01/15 04:15:19;;;;;;;2.00;1.30;;;7.40;99.90;;;;;;5030285;28;20041;-81
2023/01/15 04:17:45;;;;;;;1.60;1.00;;;7.40;99.90;;;;;;5011008;28;20032;-80
2023/01/15 04:20:11;;;;;;;3.87;2.30;;;7.50;99.90;;;;;;5028765;28;20030;-81
2023/01/15 04:22:36;;;;;;;2.87;1.50;;;7.40;99.90;;;;;;5027330;28;20164;-81
2023/01/15 04:25:03;;;;;;;1.23;0.87;;;7.50;99.90;;;;;;5026579;28;20108;-80
2023/01/15 04:27:29;;;;;;;1.53;1.03;;;7.50;99.90;;;;;;5029119;28;20029;-81
2023/01/15 04:29:54;;;;;;;1.60;0.87;;;7.50;99.90;;;;;;5026964;28;20023;-80
2023/01/15 04:32:20;;;;;;;1.83;0.70;;;7.50;99.90;;;;;;5026741;28;20045;-80
2023/01/15 04:34:45;;;;;;;2.00;1.10;;;7.50;99.90;;;;;;5028261;28;20032;-80
2023/01/15 04:37:11;;;;;;;2.73;1.20;;;7.50;99.90;;;;;;5009663;28;20530;-80
2023/01/15 04:39:36;;;;;;;2.00;1.00;;;7.50;99.90;;;;;;5010642;28;20053;-80
2023/01/15 04:44:46;;;;;;;1.77;0.90;;;7.50;99.90;;;;;;5025040;28;20090;-80
2023/01/15 04:47:12;;;;;;;1.13;0.80;;;7.40;99.90;;;;;;5028734;28;20398;-81
2023/01/15 04:49:37;;;;;;;1.10;0.77;;;7.50;99.90;;;;;;5027919;28;20032;-80
2023/01/15 04:52:03;;;;;;;1.07;0.70;;;7.40;99.90;;;;;;5011640;28;20055;-89
2023/01/15 04:54:28;;;;;;;0.90;0.70;;;7.40;99.90;;;;;;5027881;28;20034;-89
2023/01/15 04:56:54;;;;;;;1.30;0.80;;;7.40;99.90;;;;;;5032368;28;20112;-90
2023/01/15 04:59:22;;;;;;;2.27;0.87;;;7.40;99.90;;;;;;5031369;28;20458;-89
2023/01/15 05:01:48;;;;;;;2.10;0.80;;;7.40;99.90;;;;;;5028123;28;20031;-89
2023/01/15 05:04:14;;;;;;;1.63;1.00;;;7.40;99.90;;;;;;5037688;28;20071;-90
2023/01/15 05:06:39;;;;;;;1.30;0.80;;;7.50;99.90;;;;;;5029800;28;20033;-90
2023/01/15 05:09:05;;;;;;;1.63;1.10;;;7.40;99.90;;;;;;5031207;28;20363;-89
2023/01/15 05:11:35;;;;;;;2.47;0.70;;;7.40;99.90;;;;;;5027753;28;20432;-90
2023/01/15 05:14:00;;;;;;;1.37;0.70;;;7.40;99.90;;;;;;5010922;28;20445;-89
2023/01/15 05:16:27;;;;;;;1.30;0.80;;;7.40;99.90;;;;;;5028350;28;20029;-90
2023/01/15 05:18:55;;;;;;;1.40;1.00;;;7.40;99.90;;;;;;5027313;28;20017;-89
2023/01/15 05:21:26;;;;;;;2.67;1.20;;;7.40;99.90;;;;;;5030878;28;20037;-89
2023/01/15 05:23:56;;;;;;;2.17;1.00;;;7.30;99.90;;;;;;5032540;28;20051;-89
2023/01/15 05:26:21;;;;;;;2.40;1.07;;;7.30;99.90;;;;;;5032628;28;20049;-88
2023/01/15 05:28:48;;;;;;;2.10;1.10;;;7.30;99.90;;;;;;5014589;28;20061;-89
2023/01/15 05:31:17;;;;;;;1.53;1.00;;;7.30;99.90;;;;;;5024342;28;20026;-89
2023/01/15 05:33:43;;;;;;;1.30;1.00;;;7.30;99.90;;;;;;5009227;28;20576;-89
2023/01/15 05:36:11;;;;;;;1.10;0.90;;;7.30;99.90;;;;;;5030857;28;20076;-89
2023/01/15 05:38:37;;;;;;;0.73;0.70;;;7.50;99.90;;;;;;5030431;28;20026;-90
2023/01/15 05:41:53;;;;;;;0.60;0.60;;;7.70;99.90;;;;;;5032833;28;20402;-88
2023/01/15 05:43:55;;;;;;;0.80;0.67;;;8.40;99.90;;;;;;5020056;28;20038;-88
2023/01/15 05:46:21;;;;;;;0.60;0.57;;;9.00;99.90;;;;;;5032830;28;20041;-89
2023/01/15 05:48:46;;;;;;;1.23;0.60;;;9.40;99.90;;;;;;5032337;28;20517;-88
2023/01/15 05:51:12;;;;;;;1.17;0.63;;;9.90;99.90;;;;;;5039895;28;20036;-89
2023/01/15 05:53:38;;;;;;;0.90;0.80;;;10.20;99.90;;;;;;5038151;28;20037;-84
2023/01/15 05:56:04;;;;;;;0.60;0.60;;;10.40;99.90;;;;;;5037485;28;20029;-84
2023/01/15 05:58:31;;;;;;;0.40;0.40;;;10.50;99.90;;;;;;5010159;28;20021;-84
2023/01/15 06:00:57;;;;;;;0.50;0.50;;;10.50;99.90;;;;;;5038404;28;20570;-84
2023/01/15 06:03:24;;;;;;;0.57;0.50;;;10.70;99.90;;;;;;5032734;28;20083;-84
2023/01/15 06:05:50;;;;;;;1.17;0.50;;;10.80;99.90;;;;;;5028015;28;20045;-84
2023/01/15 06:08:17;;;;;;;0.47;0.40;;;10.80;99.90;;;;;;5030316;28;20113;-84
2023/01/15 06:10:44;;;;;;;5.50;0.60;;;10.90;99.90;;;;;;5037948;28;20056;-84
2023/01/15 06:13:12;;;;;;;0.43;0.43;;;11.00;99.90;;;;;;5034595;28;20179;-84
2023/01/15 06:15:38;;;;;;;0.47;0.47;;;11.00;99.90;;;;;;5036632;28;20064;-84
2023/01/15 06:18:04;;;;;;;0.50;0.47;;;11.00;99.90;;;;;;5034434;28;20539;-84
2023/01/15 06:20:30;;;;;;;0.60;0.50;;;11.10;99.90;;;;;;5033712;28;20033;-84
2023/01/15 06:22:55;;;;;;;0.53;0.50;;;11.10;99.90;;;;;;5012997;28;20053;-84
2023/01/15 06:25:21;;;;;;;0.53;0.40;;;11.10;99.90;;;;;;5034839;28;20119;-84
2023/01/15 06:27:48;;;;;;;1.33;0.50;;;11.10;99.90;;;;;;5033358;28;20029;-84
2023/01/15 06:30:14;;;;;;;1.13;0.50;;;11.10;99.90;;;;;;5029630;28;20030;-83
2023/01/15 06:32:39;;;;;;;0.43;0.40;;;11.10;99.90;;;;;;5034885;28;20030;-84
2023/01/15 06:35:05;;;;;;;0.40;0.40;;;11.10;99.90;;;;;;5024942;28;20033;-83
2023/01/15 06:37:31;;;;;;;1.00;0.50;;;11.10;99.90;;;;;;5030849;28;20053;-89
2023/01/15 06:39:56;;;;;;;0.43;0.40;;;11.10;99.90;;;;;;5032551;28;20026;-89
2023/01/15 06:47:53;;;;;;;0.70;0.50;;;11.10;99.90;;;;;;5028960;28;20079;-88
2023/01/15 06:50:18;;;;;;;1.70;0.57;;;11.10;99.90;;;;;;5033679;28;20450;-85
2023/01/15 06:52:44;;;;;;;0.40;0.40;;;11.10;99.90;;;;;;5028941;28;20041;-81
2023/01/15 06:55:10;;;;;;;0.53;0.40;;;11.20;99.90;;;;;;5028863;28;20021;-84
2023/01/15 06:57:38;;;;;;;0.53;0.50;;;11.10;99.90;;;;;;5029651;28;20381;-84
2023/01/15 07:00:05;;;;;;;0.93;0.47;;;11.10;99.90;;;;;;5007219;28;20026;-83
2023/01/15 07:02:31;;;;;;;0.40;0.40;;;11.20;99.90;;;;;;5027231;28;20042;-83
2023/01/15 07:04:56;;;;;;;0.77;0.40;;;11.20;99.90;;;;;;5024627;28;20037;-83
2023/01/15 07:07:22;;;;;;;0.57;0.47;;;11.30;99.90;;;;;;5033101;28;20061;-84
2023/01/15 07:09:48;;;;;;;0.40;0.40;;;11.30;99.90;;;;;;5029914;28;20035;-84
2023/01/15 07:12:14;;;;;;;0.80;0.53;;;11.30;99.90;;;;;;5030199;28;20034;-84
2023/01/15 07:14:39;;;;;;;0.40;0.40;;;11.30;99.90;;;;;;5031263;28;20033;-83
2023/01/15 07:17:05;;;;;;;1.43;0.60;;;11.30;99.90;;;;;;5036305;28;20029;-83
2023/01/15 07:19:31;;;;;;;0.87;0.60;;;11.30;99.90;;;;;;5026957;28;20025;-84
2023/01/15 07:21:56;;;;;;;0.40;0.40;;;11.30;99.90;;;;;;5036946;28;20029;-84
2023/01/15 07:24:22;;;;;;;0.40;0.40;;;11.30;99.90;;;;;;5013729;28;20026;-83
2023/01/15 07:26:48;;;;;;;0.90;0.50;;;11.30;99.90;;;;;;5013627;28;20036;-83
2023/01/15 07:29:13;;;;;;;1.20;0.47;;;11.20;99.90;;;;;;5016743;28;20029;-83
2023/01/15 07:31:39;;;;;;;0.37;0.37;;;11.30;99.90;;;;;;5016678;28;20033;-83
2023/01/15 07:34:05;;;;;;;0.50;0.50;;;11.20;99.90;;;;;;5007593;28;20030;-83
2023/01/15 07:36:31;;;;;;;0.40;0.40;;;11.20;99.90;;;;;;5026708;28;20037;-88
2023/01/15 07:38:57;;;;;;;0.47;0.47;;;11.20;99.90;;;;;;5031658;28;20109;-83
2023/01/15 07:49:49;;;;;;;0.40;0.40;;;11.20;99.90;;;;;;5035673;28;20354;-84
2023/01/15 07:52:17;;;;;;;0.53;0.53;;;11.30;99.90;;;;;;5037125;28;20029;-84
2023/01/15 07:54:45;;;;;;;0.70;0.50;;;11.20;99.90;;;;;;5033348;28;20132;-85
2023/01/15 07:57:19;;;;;;;0.77;0.40;;;11.20;99.90;;;;;;5019857;28;20428;-84
2023/01/15 07:59:44;;;;;;;0.80;0.57;;;11.20;99.90;;;;;;5039484;28;20076;-84
2023/01/15 08:02:11;;;;;;;0.87;0.40;;;11.10;99.90;;;;;;5031430;28;20037;-84
2023/01/15 08:04:37;;;;;;;0.80;0.63;;;11.10;99.90;;;;;;5029527;28;20048;-83
2023/01/15 08:07:04;;;;;;;1.30;0.63;;;11.10;99.90;;;;;;5014837;28;20063;-84
2023/01/15 08:09:33;;;;;;;0.50;0.50;;;11.10;99.90;;;;;;5028640;28;20029;-84
2023/01/15 08:17:29;;;;;;;2.43;0.67;;;11.10;99.90;;;;;;5032217;28;20044;-83
2023/01/15 08:19:55;;;;;;;0.40;0.40;;;11.10;99.90;;;;;;5026189;28;20565;-89
2023/01/15 08:22:20;;;;;;;1.00;0.70;;;11.20;99.90;;;;;;5027021;28;20041;-83
2023/01/15 08:24:46;;;;;;;0.67;0.57;;;11.20;99.90;;;;;;5027789;28;20041;-82
2023/01/15 08:27:12;;;;;;;0.73;0.60;;;11.20;99.90;;;;;;5008925;28;20029;-82
2023/01/15 08:29:38;;;;;;;1.00;0.60;;;11.20;99.90;;;;;;5025442;28;20048;-82
2023/01/15 08:32:04;;;;;;;0.70;0.50;;;11.20;99.90;;;;;;5024828;28;20052;-89
2023/01/15 08:34:30;;;;;;;0.60;0.60;;;11.30;99.90;;;;;;5028863;28;20041;-90
2023/01/15 08:36:58;;;;;;;0.70;0.50;;;11.30;99.90;;;;;;5030417;28;20029;-88
2023/01/15 08:39:27;;;;;;;0.70;0.70;;;11.30;99.90;;;;;;5027554;28;20030;-89
2023/01/15 08:41:54;;;;;;;0.87;0.50;;;11.30;99.90;;;;;;5025129;28;20046;-89
2023/01/15 08:44:20;;;;;;;1.10;0.67;;;11.50;99.90;;;;;;5011401;28;20117;-89
2023/01/15 08:46:47;;;;;;;0.67;0.50;;;11.50;99.90;;;;;;5026112;28;20105;-89
2023/01/15 08:49:13;;;;;;;0.60;0.50;;;11.60;99.90;;;;;;5024181;28;20033;-88
2023/01/15 08:51:39;;;;;;;0.70;0.60;;;11.70;99.90;;;;;;5028138;28;20053;-89
2023/01/15 08:54:05;;;;;;;1.57;0.57;;;11.80;99.90;;;;;;5006852;28;20052;-89
2023/01/15 08:56:30;;;;;;;0.83;0.57;;;11.80;99.90;;;;;;5030593;28;20029;-89
2023/01/15 08:58:56;;;;;;;1.10;0.70;;;11.80;99.90;;;;;;5026735;28;20100;-90
2023/01/15 09:01:21;;;;;;;0.60;0.50;;;11.80;99.90;;;;;;5031181;28;20452;-90
2023/01/15 09:03:47;;;;;;;0.40;0.32;;;11.90;99.90;;;;;;5027739;28;20028;-89
2023/01/15 09:06:13;;;;;;;0.50;0.50;;;11.90;99.90;;;;;;5030576;28;20026;-89
2023/01/15 09:08:39;;;;;;;1.40;0.60;;;11.90;99.90;;;;;;5020442;28;20022;-89
2023/01/15 09:11:08;;;;;;;0.88;0.60;;;11.90;99.90;;;;;;5030057;28;20033;-90
2023/01/15 09:13:35;;;;;;;0.90;0.60;;;12.00;99.90;;;;;;5025057;28;20064;-89
2023/01/15 09:16:02;;;;;;;1.25;0.50;;;11.90;99.90;;;;;;5028615;28;20251;-90
2023/01/15 09:18:28;;;;;;;0.50;0.50;;;11.90;99.90;;;;;;5004669;28;20026;-89
2023/01/15 09:20:54;;;;;;;1.53;0.50;;;12.10;99.90;;;;;;5025558;28;20021;-90
2023/01/15 09:23:19;;;;;;;1.45;0.70;;;12.10;99.90;;;;;;5028923;28;20048;-89
2023/01/15 09:26:40;;;;;;;1.38;0.73;;;12.20;99.90;;;;;;5030204;28;20037;-90
2023/01/15 09:29:07;;;;;;;0.53;0.53;;;12.20;99.90;;;;;;5002657;28;20034;-89
2023/01/15 09:31:33;;;;;;;0.98;0.50;;;12.30;99.90;;;;;;5025583;28;20014;-89
2023/01/15 09:33:59;;;;;;;0.50;0.50;;;12.30;99.90;;;;;;5028213;28;20033;-89
2023/01/15 09:36:31;;;;;;;1.83;0.60;;;12.40;99.90;;;;;;5028536;28;20025;-89
2023/01/15 09:38:58;;;;;;;0.85;0.55;;;12.50;99.90;;;;;;5027011;28;20018;-89
2023/01/15 09:44:40;;;;;;;1.83;0.60;;;12.70;99.90;;;;;;5026077;28;20060;-88
2023/01/15 09:47:26;;;;;;;1.55;0.60;;;12.80;99.90;;;;;;5009543;28;20030;-89
2023/01/15 09:50:19;;;;;;;1.30;0.70;;;13.00;99.90;;;;;;5023510;28;20422;-85
2023/01/15 09:53:07;;;;;;;0.93;0.70;;;13.10;99.90;;;;;;5011060;28;20032;-86
2023/01/15 09:55:39;;;;;;;0.95;0.60;;;13.10;99.90;;;;;;5013068;28;20167;-85
2023/01/15 09:58:09;;;;;;;2.20;0.70;;;13.10;99.90;;;;;;5031242;28;20053;-85
2023/01/15 10:00:40;;;;;;;0.50;0.50;;;12.70;99.90;;;;;;5007033;28;20449;-85
2023/01/15 10:03:33;;;;;;;1.00;0.60;;;12.00;99.90;;;;;;5007560;28;20030;-84
2023/01/15 10:06:11;;;;;;;0.90;0.57;;;11.20;99.90;;;;;;5029203;28;20029;-85
2023/01/15 10:08:47;;;;;;;0.33;0.33;;;10.30;99.90;;;;;;5028396;28;20033;-84
2023/01/15 10:11:18;;;;;;;0.43;0.43;;;9.60;99.90;;;;;;5025965;28;20049;-85
2023/01/15 10:14:07;;;;;;;0.60;0.50;;;9.10;99.90;;;;;;5027419;28;20033;-85
2023/01/15 10:16:33;;;;;;;0.50;0.50;;;8.70;99.90;;;;;;5028051;28;20138;-84
2023/01/15 10:19:01;;;;;;;0.50;0.50;;;8.30;99.90;;;;;;5029047;28;20453;-85
2023/01/15 10:21:46;;;;;;;0.50;0.50;;;8.00;99.90;;;;;;5028260;28;20052;-84
2023/01/15 10:24:36;;;;;;;1.85;0.80;;;7.90;99.90;;;;;;5027557;28;20465;-84
2023/01/15 10:27:22;;;;;;;0.60;0.60;;;7.70;99.90;;;;;;5026897;28;20041;-80
2023/01/15 10:30:12;;;;;;;0.73;0.70;;;7.60;99.90;;;;;;5026849;28;20087;-88
2023/01/15 10:32:48;;;;;;;0.70;0.60;;;7.50;99.90;;;;;;5031862;28;20087;-80
2023/01/15 10:35:33;;;;;;;1.03;0.63;;;7.30;99.90;;;;;;5029535;28;21394;-81
2023/01/15 10:38:18;;;;;;;0.93;0.85;;;7.20;99.90;;;;;;5030420;28;20022;-84
2023/01/15 10:41:06;;;;;;;0.50;0.50;;;7.10;99.90;;;;;;5008995;28;20448;-84
2023/01/15 10:43:58;;;;;;;0.83;0.50;;;7.00;99.90;;;;;;5024867;28;20041;-87
2023/01/15 10:46:32;;;;;;;0.77;0.60;;;6.80;99.90;;;;;;5024522;28;20032;-88
2023/01/15 10:49:13;;;;;;;0.70;0.60;;;6.70;99.90;;;;;;5024132;28;20465;-88
2023/01/15 10:51:45;;;;;;;0.60;0.60;;;6.70;99.90;;;;;;5021104;28;20021;-80
2023/01/15 10:54:36;;;;;;;1.20;0.70;;;6.60;99.90;;;;;;5021155;28;20549;-80
2023/01/15 10:57:27;;;;;;;0.70;0.70;;;6.60;99.90;;;;;;5025010;28;20473;-84
2023/01/15 11:00:00;;;;;;;0.50;0.50;;;6.60;99.90;;;;;;5025202;28;20081;-84
2023/01/15 11:02:46;;;;;;;1.77;0.73;;;6.60;99.90;;;;;;5027363;28;20496;-84
2023/01/15 11:05:15;;;;;;;0.60;0.60;;;6.60;99.90;;;;;;5027762;28;20412;-83
2023/01/15 11:07:45;;;;;;;0.70;0.70;;;6.50;99.90;;;;;;5025888;28;20026;-84
2023/01/15 11:10:16;;;;;;;0.70;0.70;;;6.50;99.90;;;;;;5024062;28;20018;-84
2023/01/15 11:21:19;;;;;;;0.80;0.70;;;6.40;99.90;;;;;;5028717;28;20041;-84
2023/01/15 11:23:46;;;;;;;0.90;0.60;;;6.30;99.90;;;;;;5028658;28;20025;-84
2023/01/15 11:26:26;;;;;;;0.60;0.60;;;6.30;99.90;;;;;;5030785;28;20021;-84
2023/01/15 11:28:54;;;;;;;0.77;0.70;;;6.30;99.90;;;;;;5032882;28;20041;-84
2023/01/15 11:31:20;;;;;;;1.20;0.70;;;6.30;99.90;;;;;;5035449;28;20148;-84
2023/01/15 11:34:03;;;;;;;0.60;0.60;;;6.20;99.90;;;;;;5025154;28;20534;-84
2023/01/15 11:36:30;;;;;;;0.80;0.80;;;6.10;99.90;;;;;;5036089;28;20022;-84
2023/01/15 11:38:56;;;;;;;0.97;0.80;;;6.10;99.90;;;;;;5041356;28;20462;-85
2023/01/15 11:50:42;;;;;;;1.17;0.80;;;6.00;99.90;;;;;;5034422;28;20046;-84
2023/01/15 11:52:47;;;;;;;0.70;0.70;;;5.90;99.90;;;;;;5036930;28;20045;-84
2023/01/15 11:55:22;;;;;;;0.80;0.80;;;5.80;99.90;;;;;;5040882;28;20028;-84
2023/01/15 11:57:53;;;;;;;1.15;0.90;;;5.60;99.90;;;;;;5029891;28;20018;-84
2023/01/15 12:00:31;;;;;;;1.40;0.90;;;5.60;99.90;;;;;;5014323;28;20021;-85
2023/01/15 12:03:02;;;;;;;0.97;0.80;;;5.50;99.90;;;;;;5046058;28;20067;-85
2023/01/15 12:05:32;;;;;;;1.00;0.67;;;5.60;99.90;;;;;;5040064;28;20022;-85
2023/01/15 12:08:02;;;;;;;0.70;0.70;;;5.50;99.90;;;;;;5028123;28;20038;-85
2023/01/15 12:11:03;;;;;;;0.70;0.70;;;5.50;99.90;;;;;;5033846;28;20374;-85
2023/01/15 12:13:52;;;;;;;1.00;0.80;;;5.50;99.90;;;;;;5031641;28;20079;-85
2023/01/15 12:16:41;;;;;;;1.17;0.80;;;5.50;99.90;;;;;;5013860;28;20021;-85
2023/01/15 12:19:55;;;;;;;0.63;0.63;;;5.50;99.90;;;;;;5016548;28;20021;-85
2023/01/15 12:22:39;;;;;;;0.60;0.60;;;5.50;99.90;;;;;;4939475;29;20027;-82
2023/01/15 12:25:18;;;;;;;1.50;0.90;;;5.40;99.90;;;;;;4937684;29;20473;-82
2023/01/15 12:27:52;;;;;;;1.10;0.80;;;5.40;99.90;;;;;;4997442;28;20414;-81
2023/01/15 12:30:42;;;;;;;1.40;1.00;;;5.40;99.90;;;;;;5027728;28;20053;-81
2023/01/15 12:33:24;;;;;;;2.97;0.97;;;5.40;99.90;;;;;;5027540;28;20017;-75
2023/01/15 12:36:00;;;;;;;1.10;0.87;;;5.40;99.90;;;;;;5032819;28;20057;-81
2023/01/15 12:38:30;;;;;;;1.87;1.10;;;5.50;99.90;;;;;;5028310;28;20041;-80
2023/01/15 12:41:13;;;;;;;1.80;1.10;;;5.50;99.90;;;;;;5009659;28;20402;-80
2023/01/15 12:46:29;;;;;;;1.67;1.10;;;5.50;99.90;;;;;;5024789;28;20517;-80
2023/01/15 12:49:02;;;;;;;1.80;1.10;;;5.50;99.90;;;;;;5028708;28;20033;-80
2023/01/15 12:51:43;;;;;;;2.10;1.30;;;5.50;99.90;;;;;;5023907;28;20029;-80
2023/01/15 12:54:14;;;;;;;1.93;1.43;;;5.40;99.90;;;;;;5023085;28;20030;-80
2023/01/15 12:57:00;;;;;;;2.00;1.40;;;5.50;99.90;;;;;;5003491;28;20108;-80
2023/01/15 12:59:38;;;;;;;2.35;1.65;;;5.50;99.90;;;;;;5022126;28;20025;-80
2023/01/15 13:02:33;;;;;;;2.60;1.57;;;5.50;99.90;;;;;;5021622;28;20648;-80
2023/01/15 13:05:09;;;;;;;2.53;1.50;;;5.50;99.90;;;;;;5027955;28;20037;-84
2023/01/15 13:07:36;;;;;;;1.43;1.23;;;5.50;99.90;;;;;;5050328;28;20527;-84
2023/01/15 13:10:25;;;;;;;1.87;1.10;;;5.60;99.90;;;;;;5040692;28;20481;-84
2023/01/15 13:12:54;;;;;;;1.83;1.27;;;5.50;99.90;;;;;;5016824;28;20036;-83
2023/01/15 13:15:24;;;;;;;2.37;1.50;;;5.50;99.90;;;;;;5028293;28;20025;-83
2023/01/15 13:18:13;;;;;;;1.87;1.23;;;5.50;99.90;;;;;;4997229;28;20025;-83
2023/01/15 13:20:53;;;;;;;1.47;0.97;;;5.50;99.90;;;;;;5031327;28;20121;-86
2023/01/15 13:23:53;;;;;;;1.40;0.90;;;5.60;99.90;;;;;;5008772;28;20018;-85
2023/01/15 13:26:51;;;;;;;1.30;0.87;;;5.70;99.90;;;;;;5015354;28;20108;-84
2023/01/15 13:29:28;;;;;;;1.20;0.80;;;5.60;99.90;;;;;;5023820;28;20076;-88
2023/01/15 13:32:02;;;;;;;0.80;0.70;;;5.60;99.90;;;;;;5023957;28;20045;-79
2023/01/15 13:35:06;;;;;;;0.97;0.80;;;5.50;99.90;;;;;;5020912;28;20091;-79
2023/01/15 13:37:45;;;;;;;0.90;0.90;;;5.50;99.90;;;;;;5022577;28;20026;-79
2023/01/15 13:40:35;;;;;;;1.20;1.00;;;5.40;99.90;;;;;;5022185;28;20041;-79
2023/01/15 13:43:05;;;;;;;1.17;0.70;;;5.40;99.90;;;;;;5022575;28;20088;-80
2023/01/15 13:45:35;;;;;;;0.80;0.60;;;5.40;99.90;;;;;;5022030;28;20029;-79
2023/01/15 13:48:28;;;;;;;0.50;0.50;;;5.40;99.90;;;;;;5023070;28;20049;-79
2023/01/15 13:50:56;;;;;;;0.80;0.80;;;5.40;99.90;;;;;;5004145;28;20808;-80
2023/01/15 13:53:34;;;;;;;1.50;0.50;;;5.30;99.90;;;;;;5022225;28;20091;-79
2023/01/15 13:56:08;;;;;;;0.70;0.70;;;5.30;99.90;;;;;;5018080;28;20492;-80
2023/01/15 13:58:38;;;;;;;1.03;0.70;;;5.20;99.90;;;;;;5019823;28;20032;-79
2023/01/15 14:01:07;;;;;;;0.73;0.73;;;5.20;99.90;;;;;;5020781;28;20021;-79
2023/01/15 14:03:36;;;;;;;0.67;0.60;;;5.30;99.90;;;;;;5019687;28;20025;-80
2023/01/15 14:06:08;;;;;;;2.03;0.70;;;5.30;99.90;;;;;;5022205;28;20022;-79
2023/01/15 14:08:44;;;;;;;0.80;0.70;;;5.30;99.90;;;;;;5019776;28;20033;-80